Time;durP1;ratioP1;P1;durP2;ratioP2;P2;SDS_P1;SDS_P2;PMS_P1;PMS_P2;Temp;Humidity;BMP_temperature;BMP_pressure;BME280_temperature;BME280_humidity;BME280_pressure;Samples;Min_cycle;Max_cycle;Signal;HPM_P1;HPM_P2
2021/08/07 00:02:06;;;;;;;;;;;;;;;15.61;73.01;97385.97;1782385;80;26211;-88
2021/08/07 00:04:45;;;;;;;;;;;;;;;15.53;73.12;97386.80;1764981;80;20355;-88
2021/08/07 00:07:09;;;;;;;;;;;;;;;15.52;73.23;97380.36;1779556;79;20214;-88
2021/08/07 00:09:35;;;;;;;;;;;;;;;15.50;73.39;97377.85;1745635;80;20782;-87
2021/08/07 00:12:01;;;;;;;;;;;;;;;15.53;73.52;97380.70;1803464;79;21925;-87
2021/08/07 00:14:27;;;;;;;;;;;;;;;15.51;73.66;97380.82;1792338;79;21010;-87
2021/08/07 00:16:53;;;;;;;;;;;;;;;15.53;73.82;97385.48;1746133;81;20874;-88
2021/08/07 00:19:19;;;;;;;;;;;;;;;15.56;73.95;97386.95;1775842;78;20738;-87
2021/08/07 00:21:45;;;;;;;;;;;;;;;15.58;74.10;97375.76;1765439;80;20244;-87
2021/08/07 00:24:11;;;;;;;;;;;;;;;15.60;74.24;97376.42;1776871;80;22069;-88
2021/08/07 00:26:43;;;;;;;;;;;;;;;15.62;74.39;97380.53;1795126;79;21069;-87
2021/08/07 00:29:12;;;;;;;;;;;;;;;15.68;74.52;97383.02;1765113;80;24486;-87
2021/08/07 00:31:38;;;;;;;;;;;;;;;15.71;74.64;97382.70;1761619;81;20252;-87
2021/08/07 00:34:04;;;;;;;;;;;;;;;15.76;74.79;97387.81;1772936;80;24803;-87
2021/08/07 00:36:30;;;;;;;;;;;;;;;15.80;74.88;97385.66;1765250;80;21988;-87
2021/08/07 00:38:59;;;;;;;;;;;;;;;15.79;74.96;97380.05;1770059;80;26019;-87
2021/08/07 00:41:27;;;;;;;;;;;;;;;15.78;75.04;97388.94;1773155;80;20306;-88
2021/08/07 00:43:53;;;;;;;;;;;;;;;15.76;75.15;97389.13;1795332;77;20301;-87
2021/08/07 00:46:19;;;;;;;;;;;;;;;15.77;75.24;97389.44;1763849;80;24749;-87
2021/08/07 00:48:46;;;;;;;;;;;;;;;15.78;75.32;97387.63;1768314;81;20248;-86
2021/08/07 00:51:12;;;;;;;;;;;;;;;15.79;75.42;97393.23;1767594;79;26048;-87
2021/08/07 00:53:38;;;;;;;;;;;;;;;15.80;75.53;97394.39;1764858;80;24745;-87
2021/08/07 00:56:04;;;;;;;;;;;;;;;15.83;75.63;97387.95;1769661;80;20251;-87
2021/08/07 00:58:30;;;;;;;;;;;;;;;15.85;75.72;97381.53;1791008;79;24697;-87
2021/08/07 01:00:56;;;;;;;;;;;;;;;15.87;75.82;97390.61;1793392;79;20232;-87
2021/08/07 01:03:34;;;;;;;;;;;;;;;15.91;75.93;97390.59;1793983;78;21023;-87
2021/08/07 01:06:04;;;;;;;;;;;;;;;15.94;76.04;97390.25;1790636;79;24481;-88
2021/08/07 01:08:35;;;;;;;;;;;;;;;15.97;76.14;97380.70;1802070;79;20214;-88
2021/08/07 01:11:02;;;;;;;;;;;;;;;16.01;76.25;97389.93;1800991;78;25172;-88
2021/08/07 01:13:39;;;;;;;;;;;;;;;16.01;76.31;97385.97;1765821;80;22008;-88
2021/08/07 01:16:07;;;;;;;;;;;;;;;16.02;76.40;97379.70;1745512;80;25897;-88
2021/08/07 01:18:34;;;;;;;;;;;;;;;16.03;76.48;97386.64;1785374;79;23795;-88
2021/08/07 01:21:00;;;;;;;;;;;;;;;16.03;76.52;97392.41;1777345;80;20333;-88
2021/08/07 01:23:36;;;;;;;;;;;;;;;16.01;76.61;97395.70;1786988;79;24738;-88
2021/08/07 01:26:21;;;;;;;;;;;;;;;16.00;76.69;97401.47;1804337;77;22082;-88
2021/08/07 01:28:49;;;;;;;;;;;;;;;16.03;76.78;97403.80;1748815;80;26792;-88
2021/08/07 01:31:16;;;;;;;;;;;;;;;16.06;76.86;97403.45;1806358;79;24518;-88
2021/08/07 01:33:43;;;;;;;;;;;;;;;16.09;76.94;97403.10;1772406;80;20478;-88
2021/08/07 01:36:09;;;;;;;;;;;;;;;16.12;77.05;97403.28;1782589;79;25530;-88
2021/08/07 01:38:37;;;;;;;;;;;;;;;16.13;77.15;97404.44;1811550;79;20267;-88
2021/08/07 01:41:03;;;;;;;;;;;;;;;16.12;77.21;97402.78;1813459;79;26038;-88
2021/08/07 01:43:30;;;;;;;;;;;;;;;16.11;77.30;97402.45;1812977;79;24700;-88
2021/08/07 01:45:55;;;;;;;;;;;;;;;16.12;77.38;97401.47;1813780;79;20340;-88
2021/08/07 01:48:26;;;;;;;;;;;;;;;16.14;77.46;97406.58;1816369;79;20794;-88
2021/08/07 01:51:00;;;;;;;;;;;;;;;16.13;77.54;97407.08;1813477;79;22019;-88
2021/08/07 01:53:35;;;;;;;;;;;;;;;16.17;77.63;97408.39;1781194;79;26025;-88
2021/08/07 01:56:03;;;;;;;;;;;;;;;16.22;77.73;97407.88;1765849;80;24338;-88
2021/08/07 01:58:34;;;;;;;;;;;;;;;16.23;77.80;97408.21;1801731;79;20241;-88
2021/08/07 02:01:00;;;;;;;;;;;;;;;16.25;77.87;97404.42;1807767;79;25389;-88
2021/08/07 02:03:27;;;;;;;;;;;;;;;16.27;77.93;97411.66;1799398;79;22241;-88
2021/08/07 02:05:54;;;;;;;;;;;;;;;16.27;77.98;97418.76;1799222;79;26013;-88
2021/08/07 02:08:20;;;;;;;;;;;;;;;16.27;78.04;97414.80;1795207;79;24553;-88
2021/08/07 02:10:48;;;;;;;;;;;;;;;16.26;78.11;97413.14;1799835;79;20229;-88
2021/08/07 02:13:15;;;;;;;;;;;;;;;16.23;78.18;97417.45;1789345;79;24812;-88
2021/08/07 02:15:42;;;;;;;;;;;;;;;16.21;78.22;97419.42;1797720;79;22868;-88
2021/08/07 02:18:09;;;;;;;;;;;;;;;16.21;78.26;97418.93;1792239;79;26050;-88
2021/08/07 02:20:35;;;;;;;;;;;;;;;16.20;78.31;97416.48;1796032;78;24527;-88
2021/08/07 02:23:02;;;;;;;;;;;;;;;16.18;78.38;97419.28;1793978;79;20297;-88
2021/08/07 02:25:28;;;;;;;;;;;;;;;16.19;78.46;97419.61;1778904;79;25571;-88
2021/08/07 02:27:55;;;;;;;;;;;;;;;16.17;78.51;97422.91;1799480;79;21980;-88
2021/08/07 02:30:21;;;;;;;;;;;;;;;16.18;78.55;97428.52;1794725;79;26025;-88
2021/08/07 02:32:47;;;;;;;;;;;;;;;16.17;78.62;97429.50;1779375;79;24483;-88
2021/08/07 02:35:14;;;;;;;;;;;;;;;16.18;78.68;97433.80;1787007;79;20262;-88
2021/08/07 02:37:42;;;;;;;;;;;;;;;16.20;78.78;97434.96;1785819;79;24805;-88
2021/08/07 02:40:09;;;;;;;;;;;;;;;16.21;78.84;97441.38;1785453;79;22049;-88
2021/08/07 02:42:36;;;;;;;;;;;;;;;16.20;78.88;97441.56;1773629;80;25978;-88
2021/08/07 02:45:03;;;;;;;;;;;;;;;16.21;78.94;97444.01;1769445;80;24691;-88
2021/08/07 02:47:30;;;;;;;;;;;;;;;16.24;78.97;97442.87;1773228;80;20423;-87
2021/08/07 02:50:01;;;;;;;;;;;;;;;16.27;79.03;97441.20;1743069;80;25042;-87
2021/08/07 02:52:27;;;;;;;;;;;;;;;16.29;79.08;97438.73;1745062;80;22022;-87
2021/08/07 02:54:54;;;;;;;;;;;;;;;16.29;79.13;97439.23;1773111;80;26007;-86
2021/08/07 02:57:20;;;;;;;;;;;;;;;16.27;79.17;97440.70;1778415;80;24436;-86
2021/08/07 02:59:46;;;;;;;;;;;;;;;16.26;79.20;97443.02;1766850;80;20283;-86
2021/08/07 03:02:13;;;;;;;;;;;;;;;16.25;79.24;97441.88;1766913;80;25007;-87
2021/08/07 03:04:44;;;;;;;;;;;;;;;16.25;79.29;97443.20;1766623;80;22230;-86
2021/08/07 03:07:10;;;;;;;;;;;;;;;16.25;79.36;97445.35;1753381;81;26580;-86
2021/08/07 03:09:39;;;;;;;;;;;;;;;16.26;79.43;97445.66;1757905;81;20275;-87
2021/08/07 03:12:05;;;;;;;;;;;;;;;16.27;79.52;97445.16;1802100;79;20311;-86
2021/08/07 03:14:31;;;;;;;;;;;;;;;16.28;79.59;97447.64;1800072;79;24962;-86
2021/08/07 03:16:57;;;;;;;;;;;;;;;16.32;79.67;97452.91;1809245;79;21982;-85
2021/08/07 03:19:24;;;;;;;;;;;;;;;16.37;79.75;97453.73;1801105;79;25960;-86
2021/08/07 03:21:55;;;;;;;;;;;;;;;16.43;79.84;97453.06;1799677;79;25059;-86
2021/08/07 03:24:21;;;;;;;;;;;;;;;16.45;79.91;97452.91;1797228;79;20268;-86
2021/08/07 03:26:47;;;;;;;;;;;;;;;16.43;79.96;97451.73;1800040;79;25347;-86
2021/08/07 03:29:13;;;;;;;;;;;;;;;16.36;80.00;97453.42;1802005;79;20371;-86
2021/08/07 03:31:42;;;;;;;;;;;;;;;16.35;80.05;97450.94;1802096;79;25951;-86
2021/08/07 03:34:08;;;;;;;;;;;;;;;16.35;80.13;97453.09;1798537;79;24524;-86
2021/08/07 03:36:34;;;;;;;;;;;;;;;16.36;80.22;97452.10;1773019;80;20770;-85
2021/08/07 03:39:00;;;;;;;;;;;;;;;16.36;80.31;97457.38;1770435;80;24799;-86
2021/08/07 03:41:26;;;;;;;;;;;;;;;16.39;80.41;97458.84;1766674;81;21930;-86
2021/08/07 03:43:52;;;;;;;;;;;;;;;16.41;80.51;97455.55;1768083;81;26122;-86
2021/08/07 03:46:18;;;;;;;;;;;;;;;16.43;80.57;97460.16;1761607;80;20862;-85
2021/08/07 03:48:44;;;;;;;;;;;;;;;16.45;80.65;97454.22;1771225;80;20812;-86
2021/08/07 03:51:14;;;;;;;;;;;;;;;16.45;80.69;97459.02;1737902;80;25443;-86
2021/08/07 03:53:38;;;;;;;;;;;;;;;16.47;80.77;97460.17;1753189;81;22905;-86
2021/08/07 03:56:04;;;;;;;;;;;;;;;16.47;80.84;97458.85;1750800;81;26775;-86
2021/08/07 03:58:30;;;;;;;;;;;;;;;16.49;80.91;97459.48;1758298;81;20253;-85
2021/08/07 04:00:56;;;;;;;;;;;;;;;16.50;80.95;97461.14;1757818;80;20568;-85
2021/08/07 04:03:22;;;;;;;;;;;;;;;16.49;80.99;97464.28;1759149;80;20750;-86
2021/08/07 04:05:49;;;;;;;;;;;;;;;16.48;81.02;97463.94;1774134;80;20929;-86
2021/08/07 04:08:15;;;;;;;;;;;;;;;16.51;81.08;97470.23;1769213;80;25999;-88
2021/08/07 04:10:41;;;;;;;;;;;;;;;16.52;81.13;97470.56;1777098;80;20857;-88
2021/08/07 04:13:07;;;;;;;;;;;;;;;16.54;81.18;97469.05;1772343;80;20798;-88
2021/08/07 04:15:33;;;;;;;;;;;;;;;16.55;81.27;97469.39;1777093;80;24834;-88
2021/08/07 04:18:00;;;;;;;;;;;;;;;16.58;81.36;97476.99;1754357;80;36487;-87
2021/08/07 04:20:26;;;;;;;;;;;;;;;16.61;81.41;97474.03;1769859;80;26404;-88
2021/08/07 04:22:52;;;;;;;;;;;;;;;16.61;81.47;97472.71;1775613;80;20243;-88
2021/08/07 04:25:18;;;;;;;;;;;;;;;16.61;81.53;97473.54;1779193;80;20213;-88
2021/08/07 04:27:45;;;;;;;;;;;;;;;16.63;81.60;97477.34;1765020;80;24725;-88
2021/08/07 04:30:12;;;;;;;;;;;;;;;16.67;81.66;97480.80;1776313;80;22096;-88
2021/08/07 04:32:38;;;;;;;;;;;;;;;16.71;81.75;97476.81;1775167;80;26952;-88
2021/08/07 04:35:09;;;;;;;;;;;;;;;16.74;81.82;97476.98;1773944;80;24592;-88
2021/08/07 04:37:47;;;;;;;;;;;;;;;16.78;81.86;97482.75;1797408;79;20211;-88
2021/08/07 04:40:15;;;;;;;;;;;;;;;16.82;81.93;97472.98;1763157;79;24751;-88
2021/08/07 04:42:41;;;;;;;;;;;;;;;16.89;82.01;97473.14;1787383;79;23607;-88
2021/08/07 04:45:09;;;;;;;;;;;;;;;16.91;82.08;97472.48;1794088;79;21044;-88
2021/08/07 04:47:35;;;;;;;;;;;;;;;16.92;82.11;97480.22;1763870;80;24675;-88
2021/08/07 04:50:03;;;;;;;;;;;;;;;16.95;82.18;97471.14;1773666;80;20163;-88
2021/08/07 04:52:29;;;;;;;;;;;;;;;16.96;82.20;97472.30;1729795;80;24850;-87
2021/08/07 04:54:56;;;;;;;;;;;;;;;17.02;82.28;97474.23;1794122;79;22653;-88
2021/08/07 04:57:21;;;;;;;;;;;;;;;17.09;82.34;97470.42;1794352;79;21114;-88
2021/08/07 04:59:47;;;;;;;;;;;;;;;17.13;82.38;97469.07;1771540;80;20842;-88
2021/08/07 05:02:13;;;;;;;;;;;;;;;17.19;82.43;97478.14;1777267;79;20545;-88
2021/08/07 05:04:39;;;;;;;;;;;;;;;17.27;82.51;97472.83;1805184;79;20290;-88
2021/08/07 05:07:05;;;;;;;;;;;;;;;17.37;82.58;97473.44;1807556;78;20257;-88
2021/08/07 05:09:31;;;;;;;;;;;;;;;17.44;82.65;97473.08;1804246;79;26616;-88
2021/08/07 05:11:57;;;;;;;;;;;;;;;17.48;82.68;97479.66;1777975;79;24508;-89
2021/08/07 05:14:24;;;;;;;;;;;;;;;17.54;82.71;97482.44;1777007;79;20334;-89
2021/08/07 05:16:50;;;;;;;;;;;;;;;17.58;82.75;97479.77;1786025;79;24998;-88
2021/08/07 05:19:16;;;;;;;;;;;;;;;17.65;82.78;97484.40;1787284;79;22150;-88
2021/08/07 05:21:43;;;;;;;;;;;;;;;17.69;82.84;97487.84;1781291;79;26050;-88
2021/08/07 05:24:09;;;;;;;;;;;;;;;17.76;82.85;97492.77;1788157;79;24448;-88
2021/08/07 05:26:35;;;;;;;;;;;;;;;17.85;82.88;97494.84;1805134;79;20325;-88
2021/08/07 05:29:01;;;;;;;;;;;;;;;17.88;82.92;97496.66;1800312;78;20252;-88
2021/08/07 05:31:27;;;;;;;;;;;;;;;17.94;82.94;97497.28;1759589;80;20742;-87
2021/08/07 05:33:53;;;;;;;;;;;;;;;17.96;82.94;97492.62;1766427;80;21163;-87
2021/08/07 05:36:19;;;;;;;;;;;;;;;18.00;82.94;97498.41;1795973;79;20305;-88
2021/08/07 05:38:45;;;;;;;;;;;;;;;18.04;82.91;97501.52;1792897;79;20221;-88
2021/08/07 05:41:17;;;;;;;;;;;;;;;18.08;82.91;97504.12;1759072;80;24761;-88
2021/08/07 05:43:43;;;;;;;;;;;;;;;18.11;82.91;97507.77;1744622;80;21993;-88
2021/08/07 05:46:09;;;;;;;;;;;;;;;18.14;82.92;97504.25;1812148;79;20996;-89
2021/08/07 05:48:35;;;;;;;;;;;;;;;18.16;82.91;97502.75;1810290;79;25288;-88
2021/08/07 05:51:01;;;;;;;;;;;;;;;18.20;82.90;97502.72;1808445;79;20224;-88
2021/08/07 05:53:27;;;;;;;;;;;;;;;18.22;82.87;97502.05;1811751;79;25526;-88
2021/08/07 05:55:54;;;;;;;;;;;;;;;18.26;82.83;97495.39;1813141;79;22047;-88
2021/08/07 05:58:21;;;;;;;;;;;;;;;18.28;82.85;97495.52;1810530;79;25942;-88
2021/08/07 06:00:47;;;;;;;;;;;;;;;18.31;82.81;97497.00;1811817;78;24421;-88
2021/08/07 06:03:13;;;;;;;;;;;;;;;18.32;82.75;97504.77;1814536;79;20311;-88
2021/08/07 06:05:45;;;;;;;;;;;;;;;18.36;82.73;97508.70;1806932;79;24885;-88
2021/08/07 06:08:11;;;;;;;;;;;;;;;18.39;82.69;97511.48;1797105;79;21971;-88
2021/08/07 06:10:37;;;;;;;;;;;;;;;18.43;82.66;97520.75;1798627;79;25967;-88
2021/08/07 06:13:03;;;;;;;;;;;;;;;18.48;82.63;97523.68;1795710;79;24420;-88
2021/08/07 06:15:30;;;;;;;;;;;;;;;18.52;82.58;97518.84;1796423;79;20297;-88
2021/08/07 06:17:56;;;;;;;;;;;;;;;18.56;82.54;97522.30;1797913;79;21586;-87
2021/08/07 06:20:23;;;;;;;;;;;;;;;18.61;82.52;97523.08;1800038;79;22801;-87
2021/08/07 06:22:54;;;;;;;;;;;;;;;18.64;82.50;97528.87;1794385;79;26037;-87
2021/08/07 06:25:26;;;;;;;;;;;;;;;18.71;82.45;97531.09;1797977;79;24532;-87
2021/08/07 06:27:54;;;;;;;;;;;;;;;18.75;82.41;97532.41;1796294;78;20481;-87
2021/08/07 06:30:24;;;;;;;;;;;;;;;18.80;82.38;97535.34;1796661;79;25573;-88
2021/08/07 06:32:51;;;;;;;;;;;;;;;18.83;82.31;97538.61;1798748;79;22059;-88
2021/08/07 06:35:17;;;;;;;;;;;;;;;18.90;82.24;97543.52;1797464;79;25489;-88
2021/08/07 06:37:43;;;;;;;;;;;;;;;18.96;82.22;97538.83;1797431;79;24498;-88
2021/08/07 06:40:10;;;;;;;;;;;;;;;19.02;82.23;97539.43;1798892;79;20486;-88
2021/08/07 06:42:36;;;;;;;;;;;;;;;19.10;82.20;97541.98;1795505;79;24787;-88
2021/08/07 06:45:02;;;;;;;;;;;;;;;19.12;82.16;97547.94;1797004;79;21970;-89
2021/08/07 06:47:29;;;;;;;;;;;;;;;19.15;82.08;97542.25;1796848;79;25956;-88
2021/08/07 06:49:55;;;;;;;;;;;;;;;19.18;82.07;97544.56;1797394;79;25196;-86
2021/08/07 06:52:23;;;;;;;;;;;;;;;19.20;82.00;97550.52;1795203;79;20254;-86
2021/08/07 06:54:54;;;;;;;;;;;;;;;19.21;81.92;97546.83;1795267;79;25326;-86
2021/08/07 06:57:21;;;;;;;;;;;;;;;19.26;81.79;97548.93;1766132;79;21848;-86
2021/08/07 06:59:47;;;;;;;;;;;;;;;19.30;81.74;97540.45;1797127;79;25959;-87
2021/08/07 07:02:13;;;;;;;;;;;;;;;19.34;81.63;97539.56;1799893;79;24663;-87
2021/08/07 07:04:39;;;;;;;;;;;;;;;19.39;81.61;97540.66;1799469;79;20313;-88
2021/08/07 07:07:05;;;;;;;;;;;;;;;19.44;81.59;97542.75;1801827;78;20255;-87
2021/08/07 07:09:31;;;;;;;;;;;;;;;19.48;81.52;97551.52;1807253;79;22090;-87
2021/08/07 07:12:00;;;;;;;;;;;;;;;19.51;81.45;97553.82;1805471;79;26775;-88
2021/08/07 07:14:26;;;;;;;;;;;;;;;19.57;81.44;97553.09;1809273;79;24495;-87
2021/08/07 07:16:54;;;;;;;;;;;;;;;19.64;81.42;97556.63;1805599;79;20563;-87
2021/08/07 07:19:21;;;;;;;;;;;;;;;19.69;81.36;97557.42;1806468;79;25608;-87
2021/08/07 07:21:47;;;;;;;;;;;;;;;19.75;81.33;97557.15;1804871;78;22137;-88
2021/08/07 07:24:23;;;;;;;;;;;;;;;19.78;81.20;97558.95;1797426;79;26023;-88
2021/08/07 07:26:49;;;;;;;;;;;;;;;19.83;81.13;97560.54;1775593;79;24557;-88
2021/08/07 07:29:15;;;;;;;;;;;;;;;19.90;81.03;97571.24;1797309;79;20931;-89
2021/08/07 07:31:41;;;;;;;;;;;;;;;19.96;80.88;97573.16;1799741;79;20279;-89
2021/08/07 07:34:07;;;;;;;;;;;;;;;20.02;80.77;97569.72;1803189;79;20232;-88
2021/08/07 07:36:34;;;;;;;;;;;;;;;20.05;80.62;97569.36;1802812;79;21016;-89
2021/08/07 07:39:08;;;;;;;;;;;;;;;20.10;80.51;97562.98;1796733;79;24485;-88
2021/08/07 07:41:35;;;;;;;;;;;;;;;20.15;80.41;97563.74;1765690;80;20584;-88
2021/08/07 07:44:01;;;;;;;;;;;;;;;20.21;80.33;97564.31;1797654;79;20295;-88
2021/08/07 07:46:27;;;;;;;;;;;;;;;20.27;80.19;97572.36;1799560;79;20784;-88
2021/08/07 07:49:03;;;;;;;;;;;;;;;20.34;80.10;97573.30;1801398;78;21651;-88
2021/08/07 07:51:29;;;;;;;;;;;;;;;20.40;80.05;97571.18;1809013;79;24543;-88
2021/08/07 07:53:55;;;;;;;;;;;;;;;20.45;79.87;97574.12;1807570;79;20265;-88
2021/08/07 07:56:21;;;;;;;;;;;;;;;20.53;79.76;97572.33;1808268;79;24584;-88
2021/08/07 07:58:49;;;;;;;;;;;;;;;20.61;79.62;97581.52;1811957;78;22003;-88
2021/08/07 08:01:16;;;;;;;;;;;;;;;20.67;79.46;97577.59;1763248;80;26930;-88
2021/08/07 08:03:41;;;;;;;;;;;;;;;20.74;79.30;97577.62;1775680;80;24368;-88
2021/08/07 08:06:07;;;;;;;;;;;;;;;20.81;79.15;97571.35;1757638;80;20836;-87
2021/08/07 08:08:34;;;;;;;;;;;;;;;20.86;78.97;97567.60;1781743;79;20222;-88
2021/08/07 08:11:02;;;;;;;;;;;;;;;20.90;78.81;97566.70;1754659;80;22096;-88
2021/08/07 08:13:28;;;;;;;;;;;;;;;20.95;78.53;97567.48;1766944;80;26726;-88
2021/08/07 08:15:56;;;;;;;;;;;;;;;21.01;78.26;97566.17;1798090;79;25183;-88
2021/08/07 08:18:22;;;;;;;;;;;;;;;21.08;78.00;97562.23;1785082;79;20206;-88
2021/08/07 08:20:49;;;;;;;;;;;;;;;21.12;77.69;97567.47;1776728;80;24787;-88
2021/08/07 08:23:22;;;;;;;;;;;;;;;21.14;77.35;97562.78;1805245;79;22692;-88
2021/08/07 08:25:50;;;;;;;;;;;;;;;21.21;77.01;97573.00;1797889;79;25984;-89
2021/08/07 08:28:16;;;;;;;;;;;;;;;21.26;76.76;97575.39;1805076;79;24359;-88
2021/08/07 08:30:43;;;;;;;;;;;;;;;21.33;76.51;97573.29;1791277;78;20604;-88
2021/08/07 08:33:09;;;;;;;;;;;;;;;21.40;76.35;97574.12;1806126;79;24847;-88
2021/08/07 08:35:35;;;;;;;;;;;;;;;21.51;76.21;97566.92;1805336;79;22034;-88
2021/08/07 08:38:01;;;;;;;;;;;;;;;21.60;76.10;97565.76;1805481;79;25993;-88
2021/08/07 08:40:27;;;;;;;;;;;;;;;21.64;75.79;97569.16;1805865;79;24498;-88
2021/08/07 08:42:53;;;;;;;;;;;;;;;21.68;75.38;97570.39;1804860;79;20351;-86
2021/08/07 08:45:20;;;;;;;;;;;;;;;21.75;75.02;97570.42;1802300;79;20731;-86
2021/08/07 08:47:46;;;;;;;;;;;;;;;21.84;74.77;97578.55;1799661;78;21918;-86
2021/08/07 08:50:14;;;;;;;;;;;;;;;21.93;74.57;97570.69;1804643;79;26114;-86
2021/08/07 08:52:41;;;;;;;;;;;;;;;22.02;74.35;97570.87;1806564;79;25848;-86
2021/08/07 08:55:08;;;;;;;;;;;;;;;22.09;74.09;97575.69;1803814;79;20471;-86
2021/08/07 08:57:40;;;;;;;;;;;;;;;22.16;73.72;97572.22;1807435;79;24365;-86
2021/08/07 09:00:08;;;;;;;;;;;;;;;22.22;73.36;97573.58;1804859;79;22082;-85
2021/08/07 09:02:34;;;;;;;;;;;;;;;22.27;72.95;97573.80;1805384;79;25955;-85
2021/08/07 09:05:05;;;;;;;;;;;;;;;22.31;72.57;97567.02;1802617;79;20241;-86
2021/08/07 09:07:32;;;;;;;;;;;;;;;22.39;72.23;97567.36;1798769;79;20471;-86
2021/08/07 09:09:59;;;;;;;;;;;;;;;22.45;71.89;97573.22;1800180;79;25429;-86
2021/08/07 09:12:42;;;;;;;;;;;;;;;22.51;71.54;97575.08;1792361;79;22240;-85
2021/08/07 09:15:10;;;;;;;;;;;;;;;22.56;71.21;97568.61;1794585;79;25954;-86
2021/08/07 09:17:37;;;;;;;;;;;;;;;22.62;70.83;97574.47;1776136;79;24520;-86
2021/08/07 09:20:04;;;;;;;;;;;;;;;22.71;70.67;97587.08;1797359;79;20265;-86
2021/08/07 09:22:32;;;;;;;;;;;;;;;22.75;70.43;97580.34;1796121;79;24822;-86
2021/08/07 09:25:09;;;;;;;;;;;;;;;22.80;70.12;97577.91;1791419;79;22079;-86
2021/08/07 09:27:50;;;;;;;;;;;;;;;22.84;69.77;97579.13;1790963;79;26043;-86
2021/08/07 09:30:22;;;;;;;;;;;;;;;22.84;69.25;97579.95;1794856;79;24397;-85
2021/08/07 09:32:58;;;;;;;;;;;;;;;22.85;68.71;97575.44;1795551;79;20253;-85
2021/08/07 09:35:31;;;;;;;;;;;;;;;22.88;68.28;97577.17;1801706;77;24181;-85
2021/08/07 09:38:05;;;;;;;;;;;;;;;22.92;67.88;97574.91;1796052;79;21981;-85
2021/08/07 09:40:45;;;;;;;;;;;;;;;22.96;67.64;97568.16;1783721;79;26613;-86
2021/08/07 09:43:13;;;;;;;;;;;;;;;23.01;67.37;97572.86;1686860;83;24515;-85
2021/08/07 09:45:40;;;;;;;;;;;;;;;23.03;67.10;97570.79;1680366;83;20353;-86
2021/08/07 09:48:07;;;;;;;;;;;;;;;23.07;66.90;97577.37;1789581;79;24759;-85
2021/08/07 09:50:36;;;;;;;;;;;;;;;23.09;66.52;97571.30;1744741;80;22039;-88
2021/08/07 09:53:03;;;;;;;;;;;;;;;23.15;66.17;97573.97;1786812;79;26076;-88
2021/08/07 09:55:29;;;;;;;;;;;;;;;23.20;65.93;97572.00;1769611;79;24448;-88
2021/08/07 09:58:06;;;;;;;;;;;;;;;23.25;65.72;97567.69;1769823;80;20463;-88
2021/08/07 10:00:40;;;;;;;;;;;;;;;23.31;65.58;97565.52;1760987;79;25540;-88
2021/08/07 10:03:14;;;;;;;;;;;;;;;23.40;65.42;97566.65;1764016;80;22892;-88
2021/08/07 10:05:40;;;;;;;;;;;;;;;23.48;65.23;97570.44;1756355;80;26859;-87
2021/08/07 10:08:13;;;;;;;;;;;;;;;23.57;65.04;97564.66;1773794;80;20427;-87
2021/08/07 10:10:40;;;;;;;;;;;;;;;23.65;64.88;97563.61;1796025;78;20292;-87
2021/08/07 10:13:07;;;;;;;;;;;;;;;23.70;64.67;97556.61;1778924;80;24778;-87
2021/08/07 10:15:33;;;;;;;;;;;;;;;23.76;64.38;97554.94;1805314;78;21993;-87
2021/08/07 10:18:00;;;;;;;;;;;;;;;23.80;63.83;97562.00;1775363;80;26020;-87
2021/08/07 10:20:27;;;;;;;;;;;;;;;23.88;63.51;97559.11;1815732;78;24495;-87
2021/08/07 10:22:54;;;;;;;;;;;;;;;23.97;63.33;97559.98;1776369;80;20486;-87
2021/08/07 10:25:22;;;;;;;;;;;;;;;24.02;62.91;97559.34;1808364;78;25546;-87
2021/08/07 10:27:50;;;;;;;;;;;;;;;24.07;62.56;97557.66;1777794;80;22067;-87
2021/08/07 10:30:16;;;;;;;;;;;;;;;24.12;62.19;97559.17;1784800;79;26292;-87
2021/08/07 10:32:43;;;;;;;;;;;;;;;24.18;61.95;97560.20;1771393;80;24725;-87
2021/08/07 10:35:10;;;;;;;;;;;;;;;24.20;61.65;97563.50;1806789;79;20274;-87
2021/08/07 10:37:38;;;;;;;;;;;;;;;24.28;61.44;97559.22;1803617;78;24821;-86
2021/08/07 10:40:07;;;;;;;;;;;;;;;24.30;61.15;97555.00;1803904;78;22033;-86
2021/08/07 10:42:34;;;;;;;;;;;;;;;24.32;60.82;97554.28;1800296;78;25867;-87
2021/08/07 10:45:01;;;;;;;;;;;;;;;24.35;60.49;97553.31;1798526;78;24554;-87
2021/08/07 10:47:44;;;;;;;;;;;;;;;24.43;60.41;97554.92;1782266;80;20511;-85
2021/08/07 10:50:30;;;;;;;;;;;;;;;24.50;60.37;97548.47;1781158;80;25578;-86
2021/08/07 10:52:59;;;;;;;;;;;;;;;24.56;60.27;97554.30;1780579;79;22145;-85
2021/08/07 10:55:45;;;;;;;;;;;;;;;24.60;60.02;97550.14;1817727;77;25463;-85
2021/08/07 10:58:30;;;;;;;;;;;;;;;24.63;59.77;97551.58;1807125;78;24462;-86
2021/08/07 11:00:57;;;;;;;;;;;;;;;24.71;59.63;97556.65;1815643;78;20337;-85
2021/08/07 11:03:25;;;;;;;;;;;;;;;24.79;59.50;97555.56;1811535;78;24826;-86
2021/08/07 11:05:52;;;;;;;;;;;;;;;24.82;59.22;97560.50;1765802;80;22074;-86
2021/08/07 11:08:18;;;;;;;;;;;;;;;24.85;58.86;97556.86;1801007;78;26013;-86
2021/08/07 11:10:44;;;;;;;;;;;;;;;24.79;58.43;97556.91;1770230;80;24369;-86
2021/08/07 11:13:26;;;;;;;;;;;;;;;24.78;58.14;97552.59;1814970;79;20301;-86
2021/08/07 11:16:11;;;;;;;;;;;;;;;24.79;57.89;97550.22;1809614;79;25834;-86
2021/08/07 11:18:37;;;;;;;;;;;;;;;24.84;57.73;97554.39;1813573;79;21977;-85
2021/08/07 11:21:03;;;;;;;;;;;;;;;24.88;57.40;97549.75;1812019;79;25971;-85
2021/08/07 11:23:31;;;;;;;;;;;;;;;24.93;57.23;97550.42;1812523;79;24434;-85
2021/08/07 11:25:58;;;;;;;;;;;;;;;25.00;57.04;97554.69;1804926;77;20252;-86
2021/08/07 11:28:24;;;;;;;;;;;;;;;25.05;56.89;97539.81;1811866;79;24738;-86
2021/08/07 11:30:51;;;;;;;;;;;;;;;25.10;56.82;97539.45;1803543;79;21978;-86
2021/08/07 11:33:19;;;;;;;;;;;;;;;25.13;56.65;97536.88;1792650;79;26071;-86
2021/08/07 11:35:49;;;;;;;;;;;;;;;25.16;56.55;97533.73;1777613;80;24671;-86
2021/08/07 11:38:22;;;;;;;;;;;;;;;25.25;56.66;97531.91;1806867;79;20264;-86
2021/08/07 11:40:50;;;;;;;;;;;;;;;25.32;56.60;97523.27;1800542;79;24839;-86
2021/08/07 11:43:26;;;;;;;;;;;;;;;25.44;56.60;97528.70;1790225;79;22039;-86
2021/08/07 11:45:50;;;;;;;;;;;;;;;25.51;56.54;97521.94;1802144;79;26554;-86
2021/08/07 11:48:23;;;;;;;;;;;;;;;25.55;56.37;97529.81;1757251;80;24524;-86
2021/08/07 11:50:51;;;;;;;;;;;;;;;25.60;56.14;97530.81;1764987;79;20550;-86
2021/08/07 11:53:20;;;;;;;;;;;;;;;25.67;56.00;97530.73;1759899;80;24830;-86
2021/08/07 11:55:48;;;;;;;;;;;;;;;25.74;55.86;97531.48;1796321;79;21910;-86
2021/08/07 11:58:15;;;;;;;;;;;;;;;25.80;55.69;97532.72;1808079;79;26019;-89
2021/08/07 12:00:41;;;;;;;;;;;;;;;25.80;55.17;97527.36;1785656;79;24538;-90
2021/08/07 12:03:09;;;;;;;;;;;;;;;25.80;54.89;97523.89;1775488;80;20241;-86
2021/08/07 12:05:38;;;;;;;;;;;;;;;25.83;54.78;97521.56;1772916;79;25493;-86
2021/08/07 12:08:05;;;;;;;;;;;;;;;25.84;54.60;97521.05;1756488;79;22373;-86
2021/08/07 12:10:36;;;;;;;;;;;;;;;25.85;54.34;97521.86;1806103;78;26289;-88
2021/08/07 12:13:02;;;;;;;;;;;;;;;25.89;54.30;97511.80;1779203;79;24454;-88
2021/08/07 12:15:28;;;;;;;;;;;;;;;25.89;53.97;97513.14;1802634;77;20871;-88
2021/08/07 12:17:55;;;;;;;;;;;;;;;25.92;53.77;97510.51;1806439;79;20226;-87
2021/08/07 12:20:22;;;;;;;;;;;;;;;25.95;53.67;97509.55;1773727;80;22014;-88
2021/08/07 12:23:08;;;;;;;;;;;;;;;25.96;53.36;97509.86;1808720;79;25990;-88
2021/08/07 12:25:35;;;;;;;;;;;;;;;25.99;53.17;97509.91;1810835;79;24417;-88
2021/08/07 12:28:02;;;;;;;;;;;;;;;26.03;53.12;97507.88;1810539;79;20280;-87
2021/08/07 12:30:35;;;;;;;;;;;;;;;26.08;53.10;97502.64;1803637;79;25461;-87
2021/08/07 12:33:21;;;;;;;;;;;;;;;26.10;52.99;97501.09;1813002;79;22085;-87
2021/08/07 12:35:47;;;;;;;;;;;;;;;26.15;53.04;97503.90;1809721;79;26210;-87
2021/08/07 12:38:13;;;;;;;;;;;;;;;26.20;53.04;97504.03;1802838;79;24506;-87
2021/08/07 12:40:41;;;;;;;;;;;;;;;26.20;52.81;97499.48;1809847;79;20324;-87
2021/08/07 12:43:13;;;;;;;;;;;;;;;26.22;52.72;97493.90;1808413;77;24800;-88
2021/08/07 12:45:59;;;;;;;;;;;;;;;26.21;52.66;97493.08;1813952;78;22041;-88
2021/08/07 12:48:25;;;;;;;;;;;;;;;26.27;52.68;97492.72;1809634;79;26030;-88
2021/08/07 12:50:58;;;;;;;;;;;;;;;26.33;52.77;97485.62;1804773;78;20245;-89
2021/08/07 12:53:26;;;;;;;;;;;;;;;26.35;52.73;97475.48;1778850;80;20283;-88